Weather observations for the past three days for
Madison Municipal Airport
Metric (Imperial)
Date Time (cdt) Wind (kph) Vis. (km) Weather Sky Cond. Temperature (ºC) Relative Humidity Wind Chill (°C) Heat Index (°C) Pressure Precipitation (cm)
Air Dwpt 6 hour altimeter (cm) sea level (mb) 1 hr 3 hr 6 hr
Max. Min.
10 09:55 NW 24 16.09 Mostly Cloudy BKN110 14 -1 36% 76.56 0.0
10 09:35 NW 22 16.09 A Few Clouds FEW110 14 0 39% 76.56 0.0
10 09:15 NW 20 16.09 Fair CLR 14 0 39% 76.53 0.0
10 08:55 W 13 16.09 Fair CLR 12 0 44% 76.53 0.0
10 08:35 W 9 16.09 Fair CLR 10 0 50% 9 76.53 0.0
10 08:15 W 13 16.09 Fair CLR 9 0 54% 7 76.53 0.0
10 07:55 W 15 16.09 Fair CLR 8 0 57% 6 76.53 0.0
10 07:35 W 17 16.09 Fair CLR 7 0 61% 4 76.5 0.0
10 07:15 W 13 16.09 Fair CLR 6 -1 61% 4 76.48 0.0
10 06:55 W 9 16.09 Fair CLR 5 -1 66% 3 76.48 0.0
10 06:35 W 7 16.09 Fair CLR 5 -2 61% 4 76.45 0.0
10 06:15 W 11 16.09 Fair CLR 4 -2 65% 2 76.43 0.0
10 05:55 SW 11 16.09 Fair CLR 3 -3 65% 0 76.43 0.0
10 05:35 SW 13 16.09 Fair CLR 3 -3 65% 0 76.43 0.0
10 05:15 SW 13 16.09 Fair CLR 4 -2 65% 1 76.43 0.0
10 04:55 SW 11 16.09 Fair CLR 4 -2 65% 2 76.4 0.0
10 04:35 SW 13 16.09 Fair CLR 4 -2 65% 1 76.4 0.0
10 04:15 SW 13 16.09 Fair CLR 4 -2 65% 1 76.4 0.0
10 03:55 SW 13 16.09 Fair CLR 4 -1 70% 1 76.4 0.0
10 03:35 SW 11 16.09 Fair CLR 3 -1 75% 0 76.38 0.0
10 03:15 W 9 16.09 Fair CLR 4 -1 70% 2 76.38 0.0
10 02:55 SW 9 16.09 Fair CLR 4 -1 70% 2 76.35 0.0
10 02:35 W 9 16.09 Fair CLR 4 0 75% 2 76.35 0.0
10 02:15 W 6 16.09 Fair CLR 4 -1 70% 76.35 0.0
10 01:55 W 7 16.09 Fair CLR 5 -3 57% 4 76.35 0.0
10 01:35 Calm 16.09 Fair CLR 5 -3 57% 76.33 0.0
10 01:15 Calm 16.09 Fair CLR 5 -3 57% 76.33 0.0
10 00:55 W 6 16.09 Fair CLR 6 -3 53% 76.33 0.0
10 00:35 SW 6 16.09 Fair CLR 6 -3 53% 76.3 0.0
09 23:55 Calm 16.09 Fair CLR 6 -3 53% 76.3 0.0
09 23:35 N 6 16.09 Fair CLR 5 -3 57% 76.28 0.0
09 23:15 N 7 16.09 Fair CLR 6 -3 53% 5 76.28 0.0
09 22:55 N 9 16.09 Fair CLR 7 -4 46% 5 76.28 0.0
09 22:35 N 7 16.09 Fair CLR 7 -4 46% 6 76.28 0.0
09 22:15 N 9 16.09 Fair CLR 6 -3 53% 4 76.25 0.0
09 21:55 N 11 16.09 Fair CLR 6 -4 49% 4 76.25 0.0
09 21:35 NW 11 16.09 Fair CLR 9 -4 40% 8 76.23 0.0
09 21:15 NW 11 16.09 Fair CLR 9 -2 46% 8 76.2 0.0
09 20:55 N 11 16.09 Fair CLR 10 -2 43% 9 76.17 0.0
09 20:35 N 15 16.09 Fair CLR 11 -2 41% 76.17 0.0
09 20:15 N 15 16.09 Fair CLR 11 -2 41% 76.15 0.0
09 19:55 N 19 16.09 Fair CLR 12 -3 35% 76.15 0.0
09 19:35 NW 19 16.09 Fair CLR 13 -2 36% 76.12 0.0
09 19:15 NW 26 16.09 Fair CLR 13 -3 33% 76.1 0.0
09 18:55 NW 19 16.09 Fair CLR 13 -3 33% 76.1 0.0
09 18:35 NW 26 G 35 16.09 Fair CLR 13 -2 36% 76.07 0.0
09 18:15 N 26 16.09 Fair CLR 13 -2 36% 76.07 0.0
09 17:55 N 31 16.09 Fair CLR 14 -2 33% 76.05 0.0
09 17:35 N 26 G 41 16.09 Fair CLR 14 -2 33% 76.05 0.0
09 17:15 NW 22 16.09 Fair CLR 14 -2 33% 76.05 0.0
09 16:55 N 30 G 43 16.09 Fair CLR 14 -2 33% 76.02 0.0
09 16:35 N 20 G 39 16.09 Fair CLR 14 -2 33% 76.02 0.0
09 16:15 N 17 G 35 16.09 Fair CLR 15 -2 31% 76.02 0.0
09 15:55 N 33 16.09 Fair and Breezy CLR 15 -2 31% 76.02 0.0
09 15:35 N 37 16.09 Fair and Breezy CLR 15 -2 31% 76 0.0
09 15:15 N 30 G 41 16.09 Fair CLR 15 -1 34% 76 0.0
09 14:55 N 33 16.09 Fair and Breezy CLR 15 -1 34% 75.97 0.0
09 14:35 N 28 G 43 16.09 Fair CLR 14 -1 36% 75.97 0.0
09 14:15 N 24 G 39 16.09 Fair CLR 14 -1 36% 75.95 0.0
09 13:55 N 28 G 39 16.09 Fair CLR 15 -1 34% 75.95 0.0
09 13:35 NW 20 G 35 16.09 Fair CLR 14 0 39% 75.95 0.0
09 13:15 NE 30 16.09 Fair CLR 14 0 39% 75.92 0.0
09 12:55 N 24 G 39 16.09 Fair CLR 14 1 41% 75.92 0.0
09 12:35 N 24 16.09 Fair CLR 13 1 44% 75.92 0.0
09 12:15 N 20 G 37 16.09 A Few Clouds FEW044 13 2 47% 75.92 0.0
09 11:55 N 22 G 35 16.09 A Few Clouds FEW045 14 3 48% 75.92 0.0
09 11:35 NE 22 G 33 16.09 Fair CLR 13 3 51% 75.9 0.0
09 11:15 N 26 16.09 A Few Clouds FEW036 12 4 58% 75.87 0.0
09 10:55 N 20 G 48 16.09 Fair CLR 12 5 63% 75.84 0.0
09 10:35 N 26 G 37 16.09 A Few Clouds FEW028 12 5 63% 75.82 0.0
09 10:15 N 26 G 37 16.09 A Few Clouds FEW025 11 5 67% 75.79 0.0
09 09:55 N 28 G 41 16.09 A Few Clouds FEW023 11 6 72% 75.74 0.0
09 09:35 N 33 16.09 Fair and Breezy CLR 12 6 67% 75.72 0.0
09 09:15 NE 28 16.09 Fair CLR 11 6 72% 75.69 0.0
09 08:55 N 31 16.09 Fair CLR 11 6 72% 75.69 0.0
09 08:35 N 31 16.09 A Few Clouds FEW019 11 8 82% 75.67 0.0
09 08:15 N 30 16.09 Partly Cloudy SCT070 11 8 82% 75.64 0.0
09 07:55 N 26 16.09 Mostly Cloudy BKN070 10 7 82% 7 75.62 0.0
09 07:35 N 24 16.09 Mostly Cloudy BKN075 BKN085 10 6 76% 7 75.59 0.0
09 07:15 N 13 16.09 Mostly Cloudy FEW070 BKN080 9 6 82% 7 75.57 0.0
09 06:55 Calm 16.09 Mostly Cloudy FEW055 SCT070 BKN080 8 5 82% 75.54 0.0
09 06:35 Calm 16.09 Unknown Precip FEW042 SCT070 BKN085 8 5 82% 75.54 0.0
09 06:15 NW 7 16.09 Overcast FEW075 OVC100 8 4 76% 7 75.54 0.0
09 05:55 N 6 16.09 Overcast FEW075 BKN095 OVC110 8 3 71% 75.57 0.0
09 05:35 N 13 16.09 Overcast BKN085 OVC110 7 2 71% 5 75.54 0.0
09 05:15 N 15 16.09 Mostly Cloudy BKN110 8 1 62% 6 75.54 0.0
09 04:55 N 20 16.09 Fair CLR 9 1 58% 6 75.54 0.0
09 04:35 NW 24 16.09 Fair CLR 9 -1 50% 6 75.51 0.0
09 04:15 NW 24 G 37 16.09 Fair CLR 11 -2 41% 75.46 0.0
09 03:55 NW 33 G 50 16.09 Fair and Breezy CLR 9 -2 46% 5 75.46 0.0
09 03:35 SW 22 16.09 Fair CLR 9 -2 46% 6 75.31 0.0
09 03:15 SW 22 G 31 16.09 Fair CLR 9 -2 46% 6 75.31 0.0
09 02:55 SW 22 16.09 Fair CLR 9 -2 46% 6 75.31 0.0
09 02:35 SW 20 16.09 Fair CLR 10 -2 43% 8 75.31 0.0
09 02:15 SW 19 16.09 Fair CLR 10 -2 43% 8 75.31 0.0
09 01:55 SW 17 16.09 Fair CLR 9 -2 46% 7 75.34 0.0
09 01:35 SW 15 16.09 Fair CLR 9 -1 50% 7 75.36 0.0
09 01:15 SW 15 16.09 Fair CLR 9 -1 50% 7 75.36 0.0
09 00:55 SW 15 16.09 Fair CLR 9 -1 50% 7 75.39 0.0
09 00:35 SW 13 16.09 Fair CLR 10 -1 47% 8 75.41 0.0
09 00:15 SW 13 16.09 Fair CLR 10 -1 47% 8 75.44 0.0
08 23:55 SW 11 16.09 Fair CLR 11 0 47% 75.46 0.0
08 23:35 SW 11 16.09 Fair CLR 11 0 47% 75.46 0.0
08 23:15 SW 9 16.09 Fair CLR 11 -1 44% 75.49 0.0
08 22:55 W 6 16.09 Fair CLR 11 -1 44% 75.49 0.0
08 22:35 W 9 16.09 Fair CLR 12 -1 41% 75.51 0.0
08 22:15 W 9 16.09 Fair CLR 13 -2 36% 75.51 0.0
08 21:55 W 11 16.09 Fair CLR 12 -2 38% 75.51 0.0
08 21:35 NW 13 16.09 Fair CLR 12 -2 38% 75.51 0.0
08 21:15 NW 11 16.09 Fair CLR 12 -2 38% 75.49 0.0
08 20:55 NW 19 16.09 Fair CLR 14 -2 33% 75.49 0.0
08 20:35 N 20 16.09 Fair CLR 15 -2 31% 75.46 0.0
08 20:15 N 24 16.09 Fair CLR 17 -2 27% 75.46 0.0
08 19:55 N 24 G 37 16.09 Fair CLR 18 -2 26% 75.46 0.0
08 19:35 N 31 G 43 16.09 Fair CLR 18 -3 24% 75.44 0.0
08 19:15 N 35 G 46 16.09 Fair and Breezy CLR 19 -2 24% 75.41 0.0
08 18:55 N 37 G 46 16.09 Fair and Breezy CLR 19 -2 24% 75.41 0.0
08 18:35 N 35 G 48 16.09 Fair and Breezy CLR 20 -1 24% 75.39 0.0
08 18:15 N 41 16.09 Fair and Breezy CLR 20 0 26% 75.39 0.0
08 17:55 N 33 G 43 16.09 A Few Clouds and Breezy FEW095 21 1 27% 75.36 0.0
08 17:35 N 33 16.09 Partly Cloudy and Breezy SCT095 21 2 29% 75.36 0.0
08 17:15 N 26 G 41 16.09 Mostly Cloudy BKN100 BKN120 21 2 29% 75.34 0.0
08 16:55 NW 28 16.09 Partly Cloudy FEW100 SCT120 21 2 29% 75.31 0.0
08 16:35 NW 37 16.09 A Few Clouds and Breezy FEW120 22 1 25% 75.31 0.0
08 16:15 NW 30 G 44 16.09 A Few Clouds FEW100 FEW120 22 2 27% 75.34 0.0
08 15:55 W 19 G 31 16.09 Fair CLR 21 1 27% 75.34 0.0
08 15:35 NW 24 G 41 16.09 Fair CLR 22 2 27% 75.36 0.0
08 15:15 W 24 G 43 16.09 A Few Clouds FEW095 22 1 25% 75.36 0.0
08 14:55 NW 24 G 43 16.09 Partly Cloudy SCT095 22 1 25% 75.39 0.0
08 14:35 W 20 G 43 16.09 A Few Clouds FEW100 22 1 25% 75.39 0.0
08 14:15 W 22 G 39 16.09 Fair CLR 22 2 27% 75.39 0.0
08 13:55 W 26 G 37 16.09 Fair CLR 22 1 25% 75.41 0.0
08 13:35 NW 26 G 37 16.09 Fair CLR 21 1 27% 75.44 0.0
08 13:15 W 20 G 31 16.09 Fair CLR 21 1 27% 75.44 0.0
08 12:55 W 26 16.09 Fair CLR 21 2 29% 75.46 0.0
08 12:35 W 26 G 39 16.09 Fair CLR 21 0 25% 75.51 0.0
08 12:15 W 19 G 30 16.09 Fair CLR 20 0 26% 75.51 0.0
08 11:55 W 19 G 30 16.09 Fair CLR 20 1 28% 75.51 0.0
08 11:35 SW 20 16.09 Fair CLR 20 0 26% 75.51 0.0
08 11:15 SW 20 G 30 16.09 Fair CLR 19 0 28% 75.54 0.0
08 10:55 SW 15 16.09 Fair CLR 19 -2 24% 75.54 0.0
08 10:35 W 20 16.09 Fair CLR 18 -2 26% 75.57 0.0
08 10:15 SW 20 16.09 Fair CLR 17 -2 27% 75.57 0.0
08 09:55 SW 20 16.09 Fair CLR 17 -1 30% 75.59 0.0
08 09:35 SW 17 16.09 Fair CLR 16 -1 31% 75.59 0.0
08 09:15 SW 24 16.09 Fair CLR 14 -2 33% 75.62 0.0
08 08:55 SW 19 16.09 A Few Clouds FEW100 14 -2 33% 75.64 0.0
08 08:35 W 19 16.09 Mostly Cloudy BKN100 13 -3 33% 75.64 0.0
08 08:15 SW 15 16.09 Mostly Cloudy BKN100 BKN120 11 -3 38% 75.64 0.0
08 07:55 SW 15 16.09 Mostly Cloudy BKN100 BKN120 10 -3 40% 8 75.64 0.0
08 07:35 SW 17 16.09 Mostly Cloudy SCT100 BKN120 10 -4 37% 8 75.64 0.0
08 07:15 SW 17 16.09 Overcast OVC100 9 -4 40% 7 75.64 0.0
08 06:55 SW 15 16.09 Overcast BKN100 OVC120 9 -4 40% 7 75.64 0.0
08 06:35 SW 11 16.09 Overcast BKN085 OVC120 8 -3 46% 6 75.64 0.0
08 06:15 SW 11 16.09 Overcast SCT070 OVC090 8 -3 46% 6 75.62 0.0
08 05:55 S 9 16.09 Overcast BKN075 OVC095 7 -2 53% 5 75.64 0.0
08 05:35 S 11 16.09 Overcast BKN075 OVC100 7 -2 53% 5 75.64 0.0
08 05:15 S 13 16.09 Overcast SCT075 BKN090 OVC110 7 -2 53% 5 75.64 0.0
08 04:55 S 11 16.09 Overcast BKN095 OVC110 7 -4 46% 5 75.64 0.0
08 04:35 S 11 16.09 Partly Cloudy SCT110 6 -3 53% 4 75.64 0.0
08 04:15 S 9 16.09 Fair CLR 6 -2 57% 4 75.64 0.0
08 03:55 S 9 16.09 Fair CLR 6 -2 57% 4 75.64 0.0
08 03:35 S 9 16.09 Fair CLR 7 -4 46% 5 75.64 0.0
08 03:15 S 7 16.09 Fair CLR 6 -3 53% 5 75.67 0.0
08 02:55 S 9 16.09 Fair CLR 6 -1 61% 4 75.67 0.0
08 02:35 S 7 16.09 Fair CLR 7 -2 53% 6 75.69 0.0
08 02:15 S 7 16.09 Fair CLR 6 -1 61% 5 75.69 0.0
08 01:35 S 7 16.09 Fair CLR 7 -2 53% 6 75.72 0.0
08 01:15 SW 9 16.09 Fair CLR 7 -3 49% 5 75.72 0.0
08 00:55 Calm 16.09 Fair CLR 8 -4 43% 75.72 0.0
08 00:35 Calm 16.09 Fair CLR 8 -5 40% 75.74 0.0
08 00:15 Calm 16.09 Fair CLR 7 -5 43% 75.74 0.0
07 23:55 Calm 16.09 Fair CLR 8 -5 40% 75.74 0.0
07 23:35 Calm 16.09 Fair CLR 8 -6 37% 75.74 0.0
07 23:15 Calm 16.09 Fair CLR 8 -5 40% 75.74 0.0
07 22:55 S 6 16.09 Fair CLR 9 -5 37% 75.74 0.0
07 22:35 Calm 16.09 Fair CLR 9 -6 34% 75.74 0.0
07 22:15 Calm 16.09 Fair CLR 9 -7 32% 75.74 0.0
07 21:55 Calm 16.09 Fair CLR 10 -6 32% 75.74 0.0
07 21:35 NE 9 16.09 Fair CLR 10 -6 32% 9 75.74 0.0
07 21:15 N 7 16.09 Fair CLR 10 -5 35% 9 75.72 0.0
07 20:55 N 7 16.09 Fair CLR 11 -4 35% 75.72 0.0
07 20:35 N 7 16.09 Fair CLR 12 -4 33% 75.72 0.0
07 20:15 NW 11 16.09 Fair CLR 13 -4 31% 75.69 0.0
07 19:55 NW 11 16.09 Fair CLR 14 -4 29% 75.69 0.0
07 19:35 NW 17 16.09 Fair CLR 14 -4 29% 75.69 0.0
07 19:15 NW 17 16.09 Fair CLR 15 -4 27% 75.69 0.0
07 18:55 W 22 16.09 Fair CLR 16 -4 25% 75.69 0.0
07 18:35 NW 20 16.09 Fair CLR 16 -5 23% 75.69 0.0
07 18:15 W 19 16.09 Fair CLR 16 -6 22% 75.69 0.0
07 17:55 NW 17 G 30 16.09 Fair CLR 16 -5 23% 75.69 0.0
07 17:35 W 17 G 31 16.09 Fair CLR 17 -4 24% 75.69 0.0
07 17:15 NW 20 16.09 Fair CLR 16 -4 25% 75.69 0.0
07 16:55 NW 20 G 30 16.09 Fair CLR 16 -4 25% 75.72 0.0
07 16:35 NW 22 16.09 Fair CLR 16 -4 25% 75.72 0.0
07 16:15 NW 11 G 24 16.09 Fair CLR 16 -4 25% 75.72 0.0
07 15:15 Calm 4.83 A Few Clouds with Haze FEW090 16 -4 25% 75.74 0.0
07 14:55 W 15 16.09 Fair CLR 16 -3 27% 75.77 0.0
07 14:35 SW 11 16.09 Fair CLR 15 -5 25% 75.77 0.0
07 14:15 NW 17 16.09 Fair CLR 15 -5 25% 75.79 0.0
07 13:55 NW 15 G 24 16.09 Fair CLR 15 -4 27% 75.77 0.0
07 13:35 N 17 16.09 Fair CLR 15 -4 27% 75.79 0.0
07 13:15 NW 15 16.09 Fair CLR 14 -4 29% 75.79 0.0
07 12:55 NW 19 16.09 Fair CLR 14 -3 31% 75.82 0.0
07 12:35 Vrbl 7 G 19 16.09 Fair CLR 14 -3 31% 75.82 0.0
07 12:15 W 13 16.09 Fair CLR 14 -3 31% 75.84 0.0
07 11:55 Vrbl 9 16.09 Fair CLR 13 -4 31% 75.84 0.0
07 11:35 N 13 16.09 Fair CLR 13 -4 31% 75.87 0.0
07 11:15 Calm 16.09 Fair CLR 12 -3 35% 75.87 0.0
07 10:55 E 7 16.09 Fair CLR 12 -3 35% 75.87 0.0
07 10:35 E 11 16.09 Fair CLR 11 -3 38% 75.87 0.0
07 10:15 SE 11 16.09 Fair CLR 11 -3 38% 75.84 0.0
Date Time (cdt) Wind (kph) Vis. (km) Weather Sky Cond. Air Dwpt Max. Min. Relative Humidity Wind Chill (°C) Heat Index (°C) altimeter (cm) sea level (mb) 1 hr 3 hr 6 hr
6 hour
Temperature (ºC) Pressure Precipitation (cm)